createdAt,value
2023-05-05T00:01:55.192Z,4.90
2023-05-05T00:11:58.378Z,4.50
2023-05-05T00:22:02.897Z,4.60
2023-05-05T00:32:06.381Z,4.30
2023-05-05T00:42:11.075Z,4.10
2023-05-05T00:52:14.317Z,4.00
2023-05-05T01:02:19.085Z,3.80
2023-05-05T01:12:28.671Z,3.30
2023-05-05T01:22:38.297Z,3.20
2023-05-05T01:32:45.105Z,2.80
2023-05-05T01:42:48.814Z,2.70
2023-05-05T01:52:53.765Z,1.70
2023-05-05T02:02:58.058Z,2.40
2023-05-05T02:13:02.972Z,2.30
2023-05-05T02:23:08.008Z,2.40
2023-05-05T02:33:14.664Z,2.10
2023-05-05T02:43:21.017Z,2.30
2023-05-05T02:53:26.936Z,2.10
2023-05-05T03:03:37.110Z,2.20
2023-05-05T03:13:44.073Z,2.60
2023-05-05T03:23:51.700Z,2.60
2023-05-05T03:33:59.031Z,2.60
2023-05-05T03:44:06.635Z,2.80
2023-05-05T03:54:12.612Z,2.50
2023-05-05T04:04:16.220Z,2.60
2023-05-05T04:14:20.884Z,2.60
2023-05-05T04:24:25.267Z,3.00
2023-05-05T04:34:32.401Z,3.50
2023-05-05T04:44:36.534Z,4.20
2023-05-05T04:54:42.146Z,4.60
2023-05-05T05:04:45.407Z,5.50
2023-05-05T05:14:49.989Z,7.30
2023-05-05T05:24:53.559Z,8.50
2023-05-05T05:34:58.406Z,9.30
2023-05-05T05:45:01.683Z,10.30
2023-05-05T05:55:08.646Z,11.90
2023-05-05T06:05:13.101Z,13.20
2023-05-05T06:15:20.125Z,13.00
2023-05-05T06:25:23.692Z,13.40
2023-05-05T06:35:30.335Z,13.60
2023-05-05T06:45:33.513Z,13.50
2023-05-05T06:55:38.192Z,14.50
2023-05-05T07:05:41.946Z,18.70
2023-05-05T07:15:47.264Z,24.10
2023-05-05T07:25:50.717Z,26.30
2023-05-05T07:35:55.591Z,27.80
2023-05-05T07:45:58.768Z,30.30
2023-05-05T07:56:03.503Z,33.30
2023-05-05T08:06:10.512Z,36.80
2023-05-05T08:16:15.438Z,38.20
2023-05-05T08:26:18.704Z,38.50
2023-05-05T08:36:23.275Z,40.00
2023-05-05T08:46:28.181Z,40.30
2023-05-05T08:56:34.929Z,41.00
2023-05-05T09:06:38.376Z,41.90
2023-05-05T09:16:44.720Z,43.10
2023-05-05T09:26:48.685Z,45.30
2023-05-05T09:36:53.294Z,48.10
2023-05-05T09:46:58.303Z,47.70
2023-05-05T09:57:02.829Z,45.10
2023-05-05T10:07:06.341Z,47.50
2023-05-05T10:17:11.394Z,49.60
2023-05-05T10:27:18.750Z,48.60
2023-05-05T10:37:24.038Z,49.00
2023-05-05T10:47:28.240Z,48.40
2023-05-05T10:57:33.681Z,49.20
2023-05-05T11:07:36.951Z,49.20
2023-05-05T11:17:48.175Z,48.40
2023-05-05T11:28:06.749Z,48.90
2023-05-05T11:38:11.370Z,49.60
2023-05-05T11:48:27.143Z,50.10
2023-05-05T11:58:31.828Z,49.20
2023-05-05T12:08:36.969Z,49.30
2023-05-05T12:18:42.359Z,49.60
2023-05-05T12:28:46.487Z,47.80
2023-05-05T12:38:51.074Z,47.00
2023-05-05T12:49:01.415Z,47.90
2023-05-05T12:59:07.546Z,48.00
2023-05-05T13:09:23.064Z,43.90
2023-05-05T13:19:27.924Z,32.70
2023-05-05T13:29:31.782Z,27.20
2023-05-05T13:39:37.032Z,24.10
2023-05-05T13:49:40.253Z,22.90
2023-05-05T13:59:45.006Z,21.80
2023-05-05T14:09:48.151Z,21.60
2023-05-05T14:19:54.493Z,20.70
2023-05-05T14:29:57.639Z,20.80
2023-05-05T14:40:04.346Z,20.40
2023-05-05T14:50:09.953Z,20.30
2023-05-05T15:00:15.742Z,19.90
2023-05-05T15:10:21.743Z,19.60
2023-05-05T15:20:26.759Z,19.40
2023-05-05T15:30:30.045Z,19.10
2023-05-05T15:40:34.617Z,18.90
2023-05-05T15:50:37.827Z,18.60
2023-05-05T16:00:42.415Z,18.20
2023-05-05T16:10:45.601Z,17.90
2023-05-05T16:20:50.503Z,17.50
2023-05-05T16:30:53.734Z,17.10
2023-05-05T16:40:58.288Z,16.90
2023-05-05T16:51:01.514Z,16.60
2023-05-05T17:01:06.084Z,15.80
2023-05-05T17:11:11.473Z,15.20
2023-05-05T17:21:16.404Z,14.80
2023-05-05T17:31:19.622Z,14.30
2023-05-05T17:41:25.636Z,14.00
2023-05-05T17:51:28.799Z,13.80
2023-05-05T18:01:33.367Z,12.60
2023-05-05T18:11:36.685Z,12.10
2023-05-05T18:21:41.291Z,11.50
2023-05-05T18:31:44.808Z,11.00
2023-05-05T18:41:49.348Z,10.50
2023-05-05T18:51:52.488Z,10.20
2023-05-05T19:01:57.038Z,9.70
2023-05-05T19:12:00.229Z,9.30
2023-05-05T19:22:04.804Z,8.90
2023-05-05T19:32:08.038Z,8.50
2023-05-05T19:42:12.727Z,8.10
2023-05-05T19:52:15.906Z,7.80
2023-05-05T20:02:22.044Z,7.50
2023-05-05T20:12:25.453Z,7.90
2023-05-05T20:22:31.006Z,7.20
2023-05-05T20:32:34.210Z,7.00
2023-05-05T20:42:38.744Z,6.80
2023-05-05T20:52:42.186Z,6.70
2023-05-05T21:02:47.046Z,6.30
2023-05-05T21:12:50.291Z,6.60
2023-05-05T21:22:54.841Z,6.40
2023-05-05T21:32:58.022Z,7.70
2023-05-05T21:43:02.545Z,7.60
2023-05-05T21:53:05.740Z,8.10
2023-05-05T22:03:10.425Z,8.10
2023-05-05T22:13:14.584Z,8.90
2023-05-05T22:23:19.155Z,8.20
2023-05-05T22:33:22.346Z,8.20
2023-05-05T22:43:26.902Z,8.10
2023-05-05T22:53:30.101Z,8.10
2023-05-05T23:03:34.762Z,7.80
2023-05-05T23:13:37.962Z,8.20
2023-05-05T23:23:42.483Z,7.70
2023-05-05T23:33:45.644Z,7.50
2023-05-05T23:43:50.184Z,7.30
2023-05-05T23:53:53.590Z,7.00
